Time;durP1;ratioP1;P1;durP2;ratioP2;P2;SDS_P1;SDS_P2;PMS_P1;PMS_P2;Temp;Humidity;BMP_temperature;BMP_pressure;BME280_temperature;BME280_humidity;BME280_pressure;Samples;Min_cycle;Max_cycle;Signal;HPM_P1;HPM_P2
2022/11/05 00:16:42;;;;;;;5.63;1.70;;;8.10;99.90;;;;;;4993004;28;20280;-71
2022/11/05 00:16:48;;;;;;;5.65;1.48;;;8.10;99.90;;;;;;4994243;28;20046;-71
2022/11/05 00:19:15;;;;;;;5.20;1.53;;;8.10;99.90;;;;;;4997666;28;20567;-71
2022/11/05 00:27:10;;;;;;;2.75;1.48;;;8.00;99.90;;;;;;4993404;28;20060;-71
2022/11/05 00:29:36;;;;;;;5.40;1.67;;;8.00;99.90;;;;;;4998286;28;20168;-72
2022/11/05 00:32:02;;;;;;;7.53;1.70;;;8.00;99.90;;;;;;4997799;28;20109;-71
2022/11/05 00:34:27;;;;;;;5.70;1.88;;;8.00;99.90;;;;;;4996647;28;20050;-72
2022/11/05 00:36:53;;;;;;;7.93;1.65;;;8.00;99.90;;;;;;4988099;28;20124;-72
2022/11/05 00:39:19;;;;;;;4.13;1.53;;;8.00;99.90;;;;;;4992916;28;20041;-71
2022/11/05 00:44:58;;;;;;;4.53;1.73;;;8.00;99.90;;;;;;4997216;28;20049;-71
2022/11/05 00:49:58;;;;;;;4.30;1.58;;;8.00;99.90;;;;;;4998578;28;20045;-71
2022/11/05 00:55:08;;;;;;;7.70;1.58;;;7.90;99.90;;;;;;4995252;28;20099;-71
2022/11/05 00:57:34;;;;;;;5.17;1.27;;;7.90;99.90;;;;;;4994872;28;21296;-71
2022/11/05 00:59:59;;;;;;;3.90;1.50;;;7.90;99.90;;;;;;4997262;28;20418;-71
2022/11/05 01:02:25;;;;;;;3.37;1.37;;;7.90;99.90;;;;;;4996941;28;20050;-71
2022/11/05 01:04:51;;;;;;;3.10;1.10;;;7.80;99.90;;;;;;4995550;28;20086;-71
2022/11/05 01:07:16;;;;;;;4.80;1.37;;;7.80;99.90;;;;;;4998713;28;20081;-71
2022/11/05 01:09:42;;;;;;;4.30;1.67;;;7.80;99.90;;;;;;4999084;28;20530;-71
2022/11/05 01:12:08;;;;;;;5.43;1.07;;;7.70;99.90;;;;;;4998091;28;20073;-71
2022/11/05 01:14:33;;;;;;;5.83;1.30;;;7.80;99.90;;;;;;4993574;28;20110;-71
2022/11/05 01:16:59;;;;;;;3.17;1.73;;;7.80;99.90;;;;;;5001402;28;20049;-71
2022/11/05 01:19:25;;;;;;;8.07;1.60;;;7.80;99.90;;;;;;4995355;28;20586;-71
2022/11/05 01:21:50;;;;;;;6.73;1.60;;;7.80;99.90;;;;;;4997435;28;20045;-71
2022/11/05 01:24:16;;;;;;;3.20;1.20;;;7.80;99.90;;;;;;5001151;28;20099;-71
2022/11/05 01:26:41;;;;;;;5.97;1.53;;;7.80;99.90;;;;;;5002721;28;20409;-71
2022/11/05 01:29:09;;;;;;;4.53;1.23;;;7.80;99.90;;;;;;5005564;28;20045;-71
2022/11/05 01:31:35;;;;;;;4.30;1.00;;;7.80;99.90;;;;;;5002397;28;20042;-71
2022/11/05 01:34:01;;;;;;;4.60;1.23;;;7.80;99.90;;;;;;4998105;28;20060;-71
2022/11/05 01:36:26;;;;;;;2.60;1.20;;;7.80;99.90;;;;;;4999900;28;20053;-71
2022/11/05 01:38:52;;;;;;;6.30;1.20;;;7.70;99.90;;;;;;4996382;28;20046;-71
2022/11/05 01:41:18;;;;;;;2.33;1.07;;;7.70;99.90;;;;;;5000906;28;20049;-71
2022/11/05 01:43:50;;;;;;;2.53;1.10;;;7.70;99.90;;;;;;4992618;28;20701;-71
2022/11/05 01:46:42;;;;;;;2.70;1.27;;;7.70;99.90;;;;;;4993672;28;20129;-71
2022/11/05 01:49:16;;;;;;;2.90;0.85;;;7.70;99.90;;;;;;4998049;28;20419;-71
2022/11/05 01:51:44;;;;;;;1.73;0.85;;;7.70;99.90;;;;;;4999825;28;20550;-71
2022/11/05 01:54:15;;;;;;;3.72;1.10;;;7.70;99.90;;;;;;4993770;28;20329;-71
2022/11/05 01:56:46;;;;;;;3.45;1.02;;;7.80;99.90;;;;;;5006389;28;20450;-71
2022/11/05 01:59:20;;;;;;;2.85;1.05;;;7.70;99.90;;;;;;5000975;28;20126;-71
2022/11/05 02:01:46;;;;;;;2.17;0.90;;;7.70;99.90;;;;;;4997005;28;20049;-71
2022/11/05 02:04:26;;;;;;;4.30;0.90;;;7.70;99.90;;;;;;4995941;28;20057;-71
2022/11/05 02:06:52;;;;;;;7.15;1.20;;;7.70;99.90;;;;;;4992173;28;20058;-71
2022/11/05 02:09:40;;;;;;;4.40;1.03;;;7.70;99.90;;;;;;4997691;28;20527;-71
2022/11/05 02:12:07;;;;;;;4.32;1.42;;;7.70;99.90;;;;;;4998738;28;20053;-71
2022/11/05 02:14:33;;;;;;;6.28;1.20;;;7.70;99.90;;;;;;5003251;28;20046;-71
2022/11/05 02:17:32;;;;;;;2.30;0.93;;;7.70;99.90;;;;;;4999255;28;20158;-71
2022/11/05 02:20:33;;;;;;;2.40;1.08;;;7.70;99.90;;;;;;5003302;28;20042;-71
2022/11/05 02:23:11;;;;;;;2.95;1.10;;;7.60;99.90;;;;;;4970414;28;20053;-71
2022/11/05 02:25:55;;;;;;;3.08;1.15;;;7.70;99.90;;;;;;5006756;28;20519;-71
2022/11/05 02:28:48;;;;;;;2.78;0.80;;;7.60;99.90;;;;;;5003130;28;20046;-72
2022/11/05 02:31:26;;;;;;;1.80;0.93;;;7.60;99.90;;;;;;5000727;28;20157;-70
2022/11/05 02:34:29;;;;;;;4.95;1.48;;;7.60;99.90;;;;;;4987091;28;20361;-71
2022/11/05 02:37:19;;;;;;;5.50;1.10;;;7.60;99.90;;;;;;4993474;28;20424;-71
2022/11/05 02:40:14;;;;;;;2.90;1.30;;;7.70;99.90;;;;;;4997629;28;20042;-70
2022/11/05 02:43:07;;;;;;;2.35;1.15;;;7.70;99.90;;;;;;4972713;28;20058;-70
2022/11/05 02:46:08;;;;;;;2.35;1.15;;;7.70;99.90;;;;;;4979407;28;20124;-70
2022/11/05 02:48:52;;;;;;;3.58;1.05;;;7.70;99.90;;;;;;4999308;28;22062;-71
2022/11/05 02:51:33;;;;;;;3.10;0.90;;;7.70;99.90;;;;;;5004058;28;20073;-71
2022/11/05 02:54:18;;;;;;;3.30;1.02;;;7.70;99.90;;;;;;5001411;28;20042;-71
2022/11/05 02:56:48;;;;;;;2.95;0.90;;;7.80;99.90;;;;;;4995860;28;20100;-71
2022/11/05 02:59:13;;;;;;;4.63;0.88;;;7.80;99.90;;;;;;5011491;28;20042;-70
2022/11/05 03:01:43;;;;;;;1.33;0.77;;;7.80;99.90;;;;;;5009142;28;20068;-71
2022/11/05 03:04:11;;;;;;;6.97;1.20;;;7.80;99.90;;;;;;5016117;28;20471;-71
2022/11/05 03:06:55;;;;;;;3.13;1.10;;;7.80;99.90;;;;;;4992423;28;20141;-71
2022/11/05 03:09:27;;;;;;;2.72;1.13;;;7.70;99.90;;;;;;5033709;22;20098;-87
2022/11/05 03:12:08;;;;;;;2.83;0.88;;;7.70;99.90;;;;;;5032541;28;20461;-88
2022/11/05 03:14:58;;;;;;;3.72;1.63;;;7.80;99.90;;;;;;5038579;28;20045;-88
2022/11/05 03:17:51;;;;;;;5.35;1.27;;;7.70;99.90;;;;;;5034960;28;20037;-86
2022/11/05 03:20:22;;;;;;;4.78;0.90;;;7.80;99.90;;;;;;5022368;28;20037;-86
2022/11/05 03:23:16;;;;;;;3.53;1.00;;;7.80;99.90;;;;;;5045319;28;20037;-86
2022/11/05 03:26:56;;;;;;;2.72;0.90;;;7.80;99.90;;;;;;5051712;22;20530;-86
2022/11/05 03:29:33;;;;;;;3.33;1.00;;;7.80;99.90;;;;;;4960538;28;20030;-87
2022/11/05 03:32:12;;;;;;;;;;;7.80;99.90;;;;;;4932754;28;20482;-87
2022/11/05 03:34:49;;;;;;;3.13;1.25;;;7.80;99.90;;;;;;5008765;28;19960;-87
2022/11/05 03:37:21;;;;;;;2.13;1.17;;;7.90;99.90;;;;;;5038532;28;20116;-87
2022/11/05 03:39:50;;;;;;;4.32;1.05;;;7.80;99.90;;;;;;5032214;28;20143;-87
2022/11/05 03:42:19;;;;;;;3.78;0.90;;;7.80;99.90;;;;;;5013765;28;20037;-87
2022/11/05 03:44:50;;;;;;;2.33;0.90;;;7.80;99.90;;;;;;5034632;28;20038;-87
2022/11/05 03:47:42;;;;;;;3.03;0.90;;;7.80;99.90;;;;;;5028317;28;20041;-87
2022/11/05 03:50:31;;;;;;;1.65;0.80;;;7.80;99.90;;;;;;5035273;28;20315;-87
2022/11/05 03:53:35;;;;;;;3.22;0.95;;;7.80;99.90;;;;;;5037413;28;20065;-88
2022/11/05 03:56:07;;;;;;;1.85;0.80;;;7.90;99.90;;;;;;5023866;28;20141;-87
2022/11/05 03:58:34;;;;;;;2.03;0.80;;;7.90;99.90;;;;;;5020517;28;20041;-87
2022/11/05 04:01:03;;;;;;;3.08;0.90;;;7.90;99.90;;;;;;5035830;28;20044;-87
2022/11/05 04:03:41;;;;;;;4.45;1.08;;;7.90;99.90;;;;;;5034175;28;21029;-87
2022/11/05 04:15:07;;;;;;;3.47;1.33;;;7.80;99.90;;;;;;5031336;28;20026;-87
2022/11/05 04:17:36;;;;;;;5.75;0.95;;;7.80;99.90;;;;;;5034988;28;20052;-87
2022/11/05 04:25:44;;;;;;;4.85;0.73;;;7.70;99.90;;;;;;5027333;28;20546;-87
2022/11/05 04:28:11;;;;;;;2.50;0.77;;;7.70;99.90;;;;;;5029539;28;20564;-88
2022/11/05 04:30:59;;;;;;;1.60;0.70;;;7.70;99.90;;;;;;5032745;28;20572;-86
2022/11/05 04:33:25;;;;;;;1.73;0.68;;;7.80;99.90;;;;;;5032727;28;20072;-86
2022/11/05 04:35:51;;;;;;;2.90;1.00;;;7.70;99.90;;;;;;5023050;28;20042;-86
2022/11/05 04:38:18;;;;;;;4.50;1.08;;;7.70;99.90;;;;;;5027060;28;20124;-87
2022/11/05 04:40:51;;;;;;;5.30;1.40;;;7.70;99.90;;;;;;5026927;28;20061;-86
2022/11/05 04:43:19;;;;;;;4.10;1.38;;;7.80;99.90;;;;;;5015035;28;20098;-86
2022/11/05 04:45:45;;;;;;;4.40;1.20;;;7.70;99.90;;;;;;5026488;28;20124;-87
2022/11/05 04:48:11;;;;;;;3.53;1.53;;;7.70;99.90;;;;;;5011403;28;20513;-86
2022/11/05 04:50:42;;;;;;;4.93;1.27;;;7.70;99.90;;;;;;5023334;28;20041;-87
2022/11/05 04:53:21;;;;;;;5.10;1.53;;;7.80;99.90;;;;;;5016567;28;20135;-86
2022/11/05 04:55:50;;;;;;;3.22;1.38;;;7.80;99.90;;;;;;5029722;22;20072;-87
2022/11/05 04:58:21;;;;;;;4.97;1.50;;;7.80;99.90;;;;;;5010299;28;20068;-87
2022/11/05 05:00:49;;;;;;;4.50;1.80;;;7.70;99.90;;;;;;5011449;28;20461;-86
2022/11/05 05:03:15;;;;;;;4.35;1.50;;;7.80;99.90;;;;;;5009071;28;20109;-87
2022/11/05 05:05:40;;;;;;;7.77;1.77;;;7.80;99.90;;;;;;5021848;22;20072;-88
2022/11/05 05:08:06;;;;;;;3.60;1.77;;;7.70;99.90;;;;;;5009048;28;20040;-87
2022/11/05 05:10:35;;;;;;;2.67;1.40;;;7.70;99.90;;;;;;5029653;28;20049;-87
2022/11/05 05:13:04;;;;;;;3.40;1.50;;;7.70;99.90;;;;;;5029482;28;20365;-87
2022/11/05 05:15:29;;;;;;;7.05;2.33;;;7.80;99.90;;;;;;5025678;28;20422;-87
2022/11/05 05:18:08;;;;;;;;;;;;;;;;;;;;;
2022/11/05 05:23:39;;;;;;;4.30;2.07;;;7.80;99.90;;;;;;5022252;28;20048;-87
2022/11/05 05:26:05;;;;;;;5.93;1.90;;;7.70;99.90;;;;;;5031889;28;20492;-86
2022/11/05 05:28:34;;;;;;;5.88;2.25;;;7.80;99.90;;;;;;5031235;28;20093;-86
2022/11/05 05:31:20;;;;;;;5.32;1.77;;;7.80;99.90;;;;;;5030192;28;20041;-86
2022/11/05 05:33:46;;;;;;;4.65;2.08;;;7.90;99.90;;;;;;5040626;28;20437;-87
2022/11/05 05:36:15;;;;;;;5.87;1.97;;;7.90;99.90;;;;;;5029916;28;20060;-86
2022/11/05 05:38:41;;;;;;;4.78;1.83;;;7.90;99.90;;;;;;5016754;28;20943;-86
2022/11/05 05:41:07;;;;;;;2.70;1.70;;;7.90;99.90;;;;;;5031085;28;20037;-86
2022/11/05 05:43:59;;;;;;;6.00;1.77;;;7.90;99.90;;;;;;5034976;28;20037;-86
2022/11/05 05:46:25;;;;;;;4.32;1.88;;;7.90;99.90;;;;;;5008157;28;20049;-87
2022/11/05 05:48:56;;;;;;;5.63;2.00;;;7.90;99.90;;;;;;5033324;28;20064;-86
2022/11/05 05:51:22;;;;;;;4.07;2.00;;;8.00;99.90;;;;;;5032850;28;20033;-86
2022/11/05 05:54:06;;;;;;;5.10;1.90;;;7.80;99.90;;;;;;5030858;28;20095;-86
2022/11/05 05:58:59;;;;;;;3.00;1.77;;;7.90;99.90;;;;;;5043311;28;20406;-72
2022/11/05 06:01:24;;;;;;;6.13;1.60;;;7.80;99.90;;;;;;5027699;28;20041;-72
2022/11/05 06:03:50;;;;;;;4.00;1.77;;;7.80;99.90;;;;;;5016558;28;20033;-72
2022/11/05 06:06:19;;;;;;;4.37;2.13;;;7.80;99.90;;;;;;5007460;28;20045;-73
2022/11/05 06:08:45;;;;;;;4.88;1.77;;;7.80;99.90;;;;;;5037618;28;20048;-72
2022/11/05 06:11:11;;;;;;;8.25;2.75;;;7.80;99.90;;;;;;5029056;28;20037;-72
2022/11/05 06:13:37;;;;;;;7.53;4.67;;;7.70;99.90;;;;;;5026296;28;20046;-72
2022/11/05 06:16:05;;;;;;;8.03;4.47;;;7.70;99.90;;;;;;5008366;28;20051;-72
2022/11/05 06:18:32;;;;;;;10.15;5.78;;;7.70;99.90;;;;;;5022572;28;20504;-72
2022/11/05 06:21:09;;;;;;;8.02;4.65;;;7.70;99.90;;;;;;5031713;28;20526;-72
2022/11/05 06:23:37;;;;;;;7.18;4.57;;;7.70;99.90;;;;;;5007262;28;20347;-72
2022/11/05 06:26:05;;;;;;;9.52;4.45;;;7.60;99.90;;;;;;5007871;28;20120;-72
2022/11/05 06:28:32;;;;;;;7.88;4.70;;;7.60;99.90;;;;;;5038202;28;20083;-72
2022/11/05 06:30:58;;;;;;;7.28;4.22;;;7.60;99.90;;;;;;5014391;28;20049;-72
2022/11/05 06:33:24;;;;;;;8.82;4.45;;;7.60;99.90;;;;;;5023012;28;20049;-72
2022/11/05 06:35:51;;;;;;;8.57;4.82;;;7.50;99.90;;;;;;5029987;28;20475;-72
2022/11/05 06:38:17;;;;;;;9.65;4.05;;;7.50;99.90;;;;;;5027542;28;20395;-72
2022/11/05 06:40:42;;;;;;;7.93;3.93;;;7.50;99.90;;;;;;5030915;28;20042;-72
2022/11/05 06:43:10;;;;;;;5.60;3.07;;;7.50;99.90;;;;;;5009377;28;20624;-72
2022/11/05 06:45:36;;;;;;;6.72;3.38;;;7.40;99.90;;;;;;5011427;28;20640;-72
2022/11/05 06:48:02;;;;;;;7.70;3.10;;;7.40;99.90;;;;;;5021221;28;20042;-72
2022/11/05 06:50:28;;;;;;;3.53;1.97;;;7.40;99.90;;;;;;5024117;28;20410;-72
2022/11/05 06:52:57;;;;;;;7.55;2.65;;;7.40;99.90;;;;;;5023551;28;20120;-72
2022/11/05 06:55:24;;;;;;;7.00;2.25;;;7.30;99.90;;;;;;5003154;28;20088;-72
2022/11/05 06:57:50;;;;;;;4.28;1.92;;;7.40;99.90;;;;;;5008974;28;20049;-72
2022/11/05 07:00:17;;;;;;;2.80;1.60;;;7.30;99.90;;;;;;5032399;28;20387;-72
2022/11/05 07:02:43;;;;;;;4.85;1.83;;;7.40;99.90;;;;;;5004328;28;20100;-72
2022/11/05 07:05:10;;;;;;;3.28;1.88;;;7.30;99.90;;;;;;5007755;28;20037;-72
2022/11/05 07:07:40;;;;;;;3.92;1.95;;;7.30;99.90;;;;;;5010322;28;20384;-72
2022/11/05 07:10:09;;;;;;;7.07;2.08;;;7.30;99.90;;;;;;5010279;28;20100;-72
2022/11/05 07:12:35;;;;;;;5.68;3.35;;;7.30;99.90;;;;;;4995639;28;20037;-72
2022/11/05 07:15:01;;;;;;;4.63;2.63;;;7.30;99.90;;;;;;5021856;28;20044;-72
2022/11/05 07:17:27;;;;;;;4.05;1.88;;;7.30;99.90;;;;;;5025321;28;20083;-72
2022/11/05 07:19:52;;;;;;;4.80;2.00;;;7.40;99.90;;;;;;5011022;28;20098;-72
2022/11/05 07:22:18;;;;;;;4.47;2.00;;;7.30;99.90;;;;;;5002639;28;20503;-72
2022/11/05 07:24:46;;;;;;;4.77;1.83;;;7.40;99.90;;;;;;5004108;28;20048;-72
2022/11/05 07:27:12;;;;;;;3.92;2.15;;;7.40;99.90;;;;;;5011339;28;20041;-72
2022/11/05 07:29:38;;;;;;;;;;;7.40;99.90;;;;;;5027913;28;20448;-72
2022/11/05 07:32:04;;;;;;;3.58;2.10;;;7.40;99.90;;;;;;5002840;28;19924;-72
2022/11/05 07:34:30;;;;;;;5.82;1.73;;;7.40;99.90;;;;;;5007811;28;20495;-72
2022/11/05 07:36:56;;;;;;;3.30;1.93;;;7.40;99.90;;;;;;5014563;28;20043;-72
2022/11/05 07:39:21;;;;;;;4.03;2.07;;;7.40;99.90;;;;;;5006928;28;20318;-72
2022/11/05 07:41:47;;;;;;;4.87;2.17;;;7.50;99.90;;;;;;5011970;28;20041;-72
2022/11/05 07:44:13;;;;;;;5.17;2.00;;;7.50;99.90;;;;;;5009646;28;20414;-72
2022/11/05 07:46:40;;;;;;;3.97;2.55;;;7.50;99.90;;;;;;5022498;28;20040;-72
2022/11/05 07:49:06;;;;;;;4.22;1.95;;;7.60;99.90;;;;;;5009933;28;20049;-72
2022/11/05 07:51:32;;;;;;;6.07;2.23;;;7.60;99.90;;;;;;5029077;28;20496;-72
2022/11/05 07:53:57;;;;;;;4.15;1.92;;;7.60;99.90;;;;;;5023291;28;20094;-72
2022/11/05 07:56:23;;;;;;;3.33;1.87;;;7.70;99.90;;;;;;5022327;28;20057;-72
2022/11/05 07:58:49;;;;;;;5.00;1.97;;;7.70;99.90;;;;;;5029462;28;20044;-72
2022/11/05 08:01:15;;;;;;;5.40;1.80;;;7.70;99.90;;;;;;5016426;28;20044;-72
2022/11/05 08:03:40;;;;;;;9.57;1.73;;;7.80;99.90;;;;;;5023877;28;20076;-72
2022/11/05 08:06:06;;;;;;;5.50;2.00;;;7.80;99.90;;;;;;5007341;28;20526;-72
2022/11/05 08:08:32;;;;;;;6.77;2.10;;;7.90;99.90;;;;;;5003981;28;20116;-72
2022/11/05 08:11:05;;;;;;;5.87;2.97;;;8.00;99.90;;;;;;5004447;28;20034;-72
2022/11/05 08:13:32;;;;;;;4.55;2.25;;;8.00;99.90;;;;;;5000468;28;20081;-72
2022/11/05 08:15:57;;;;;;;4.85;2.25;;;8.00;99.90;;;;;;5024561;28;20457;-73
2022/11/05 08:18:30;;;;;;;8.90;2.00;;;8.10;99.90;;;;;;5009074;28;20400;-72
2022/11/05 08:20:58;;;;;;;7.55;1.90;;;8.10;99.90;;;;;;5027398;28;20799;-72
2022/11/05 08:23:24;;;;;;;2.70;1.58;;;8.20;99.90;;;;;;5006473;28;20049;-73
2022/11/05 08:25:50;;;;;;;5.18;2.30;;;8.30;99.90;;;;;;5004691;28;20041;-72
2022/11/05 08:28:16;;;;;;;6.07;1.90;;;8.30;99.90;;;;;;5029940;28;20094;-72
2022/11/05 08:30:41;;;;;;;4.17;2.00;;;8.40;99.90;;;;;;5024967;28;20037;-72
2022/11/05 08:33:11;;;;;;;4.53;1.70;;;8.40;99.90;;;;;;5024175;28;20518;-72
2022/11/05 08:35:38;;;;;;;4.53;1.63;;;8.60;99.90;;;;;;5030594;28;20112;-72
2022/11/05 08:38:05;;;;;;;3.10;1.52;;;8.60;99.90;;;;;;5019359;28;20049;-72
2022/11/05 08:40:33;;;;;;;3.17;1.65;;;8.70;99.90;;;;;;4998838;28;20045;-72
2022/11/05 08:43:01;;;;;;;2.78;1.70;;;8.70;99.90;;;;;;5024494;28;20041;-72
2022/11/05 08:45:30;;;;;;;4.18;1.80;;;8.80;99.90;;;;;;5002558;28;20188;-72
2022/11/05 08:47:59;;;;;;;6.85;1.90;;;8.90;99.90;;;;;;5026249;28;20218;-72
2022/11/05 08:50:26;;;;;;;3.40;1.58;;;8.90;99.90;;;;;;5008262;28;20049;-72
2022/11/05 08:52:51;;;;;;;5.35;1.70;;;9.00;99.90;;;;;;5009565;28;20041;-72
2022/11/05 08:55:17;;;;;;;2.57;1.73;;;9.00;99.90;;;;;;5026900;28;20537;-72
2022/11/05 08:57:47;;;;;;;3.35;1.85;;;9.20;99.90;;;;;;5003993;28;20132;-75
2022/11/05 09:00:13;;;;;;;4.60;2.03;;;9.20;99.90;;;;;;5025317;28;20123;-72
2022/11/05 09:02:40;;;;;;;5.40;1.60;;;9.30;99.90;;;;;;4999972;28;20098;-72
2022/11/05 09:05:06;;;;;;;3.28;1.52;;;9.40;99.90;;;;;;4987811;28;20049;-72
2022/11/05 09:07:32;;;;;;;;;;;9.40;99.90;;;;;;5028386;28;20053;-72
2022/11/05 09:09:58;;;;;;;5.68;1.80;;;9.50;99.90;;;;;;5041543;22;19932;-83
2022/11/05 09:12:48;;;;;;;3.97;1.45;;;9.50;99.90;;;;;;5018646;28;20133;-82
2022/11/05 09:19:03;;;;;;;;;;;;;;;;;;;;;
2022/11/05 09:26:07;;;;;;;3.22;1.98;;;9.80;99.90;;;;;;4945031;28;20035;-85
2022/11/05 09:32:43;;;;;;;3.25;2.08;;;10.00;99.90;;;;;;4945013;29;20046;-85
2022/11/05 09:36:08;;;;;;;5.00;1.60;;;10.10;99.90;;;;;;4942043;29;20667;-86
2022/11/05 09:42:54;;;;;;;8.43;2.05;;;10.40;99.90;;;;;;4896527;29;20044;-84
2022/11/05 09:46:28;;;;;;;3.45;2.20;;;10.40;99.90;;;;;;4950786;28;20059;-86
2022/11/05 10:00:19;;;;;;;5.13;1.55;;;10.90;99.90;;;;;;5021941;22;20052;-69
2022/11/05 10:02:59;;;;;;;3.50;1.42;;;11.00;99.90;;;;;;5006386;28;20301;-69
2022/11/05 10:05:26;;;;;;;4.35;1.58;;;11.20;99.90;;;;;;5019626;28;20061;-68
2022/11/05 10:07:58;;;;;;;3.75;1.50;;;11.30;99.90;;;;;;5024502;28;20041;-69
2022/11/05 10:10:27;;;;;;;3.08;1.50;;;11.40;99.90;;;;;;5024357;28;20060;-69
2022/11/05 10:12:57;;;;;;;3.88;1.70;;;11.50;99.90;;;;;;5029415;28;20049;-69
2022/11/05 10:15:35;;;;;;;4.38;1.50;;;11.50;99.90;;;;;;5029559;28;20048;-69
2022/11/05 10:18:22;;;;;;;5.78;1.58;;;11.60;99.90;;;;;;5021073;28;20124;-69
2022/11/05 10:20:48;;;;;;;4.60;2.00;;;11.80;99.90;;;;;;5015202;28;20050;-69
2022/11/05 10:23:20;;;;;;;3.63;1.70;;;11.80;99.90;;;;;;5010430;28;20068;-68
2022/11/05 10:25:50;;;;;;;3.15;1.30;;;11.90;99.90;;;;;;5030595;28;20037;-68
2022/11/05 10:28:19;;;;;;;1.83;1.10;;;11.90;99.90;;;;;;5032582;28;20495;-69
2022/11/05 10:30:47;;;;;;;3.00;1.23;;;11.90;99.90;;;;;;5035531;28;20494;-69
2022/11/05 10:33:20;;;;;;;3.83;1.65;;;11.90;99.90;;;;;;5026880;28;20079;-68
2022/11/05 10:35:49;;;;;;;2.67;1.30;;;11.90;99.90;;;;;;5032742;28;20044;-68
2022/11/05 10:38:15;;;;;;;3.88;1.15;;;11.80;99.90;;;;;;5021363;28;20037;-68
2022/11/05 10:40:44;;;;;;;3.80;1.30;;;11.80;99.90;;;;;;5022869;28;20074;-68
2022/11/05 10:43:20;;;;;;;7.35;1.30;;;11.90;99.90;;;;;;5024497;28;20430;-69
2022/11/05 10:46:17;;;;;;;2.13;1.30;;;11.80;99.90;;;;;;5025474;28;20040;-69
2022/11/05 10:48:57;;;;;;;4.40;1.60;;;11.80;99.90;;;;;;5028047;28;20034;-69
2022/11/05 10:51:23;;;;;;;4.22;1.20;;;11.80;99.90;;;;;;5023111;28;20096;-69
2022/11/05 10:53:55;;;;;;;3.03;1.35;;;11.90;99.90;;;;;;5023573;28;20037;-69
2022/11/05 10:56:35;;;;;;;2.70;1.20;;;11.90;99.90;;;;;;5015626;28;20045;-70
2022/11/05 10:59:17;;;;;;;3.20;1.10;;;11.90;99.90;;;;;;5013581;28;20051;-69
2022/11/05 11:01:43;;;;;;;4.07;1.42;;;12.00;99.90;;;;;;5019712;28;20057;-68
2022/11/05 11:04:24;;;;;;;3.75;1.20;;;12.10;99.90;;;;;;5019083;28;20380;-68
2022/11/05 11:06:55;;;;;;;5.00;2.50;;;12.20;99.90;;;;;;5024081;28;20057;-69
2022/11/05 11:09:20;;;;;;;4.35;1.13;;;12.40;99.90;;;;;;5022977;28;20128;-69
2022/11/05 11:11:55;;;;;;;3.20;1.10;;;12.50;99.90;;;;;;5028443;28;20112;-69
2022/11/05 11:14:21;;;;;;;2.83;1.17;;;12.60;99.90;;;;;;5029724;28;20178;-69
2022/11/05 11:16:55;;;;;;;5.97;1.20;;;12.70;99.90;;;;;;5021802;28;20040;-70
2022/11/05 11:19:29;;;;;;;3.90;1.40;;;12.70;99.90;;;;;;5022684;28;20060;-70
2022/11/05 11:22:03;;;;;;;5.68;1.08;;;12.80;99.90;;;;;;5020600;28;20446;-70
2022/11/05 11:24:41;;;;;;;3.10;1.50;;;12.80;99.90;;;;;;5021262;28;20059;-70
2022/11/05 11:27:17;;;;;;;2.55;1.00;;;12.80;99.90;;;;;;5030817;28;20499;-70
2022/11/05 11:29:51;;;;;;;3.88;0.90;;;12.80;99.90;;;;;;5028855;28;20050;-70
2022/11/05 11:32:22;;;;;;;6.05;1.00;;;12.80;99.90;;;;;;5025417;28;20048;-69
2022/11/05 11:34:51;;;;;;;2.40;0.85;;;12.70;99.90;;;;;;5030850;28;20138;-69
2022/11/05 11:37:33;;;;;;;3.95;0.80;;;12.60;99.90;;;;;;5014316;28;20041;-69
2022/11/05 11:40:14;;;;;;;2.25;0.80;;;12.40;99.90;;;;;;5029029;28;20056;-69
2022/11/05 11:42:44;;;;;;;3.92;1.42;;;12.20;99.90;;;;;;5017684;28;20055;-70
2022/11/05 11:45:40;;;;;;;2.60;1.00;;;12.10;99.90;;;;;;5022808;28;20037;-69
2022/11/05 11:48:13;;;;;;;4.03;0.68;;;12.00;99.90;;;;;;5024159;28;20152;-70
2022/11/05 11:50:44;;;;;;;2.42;0.85;;;11.90;99.90;;;;;;5027844;28;20045;-70
2022/11/05 11:53:20;;;;;;;1.45;0.50;;;11.80;99.90;;;;;;5027936;28;20463;-70
2022/11/05 11:56:14;;;;;;;1.10;0.47;;;11.70;99.90;;;;;;5016543;28;21553;-70
2022/11/05 11:58:52;;;;;;;1.25;0.70;;;11.60;99.90;;;;;;5021306;28;20049;-70
2022/11/05 12:01:39;;;;;;;1.80;0.55;;;11.50;99.90;;;;;;5022681;28;20042;-70
2022/11/05 12:04:08;;;;;;;;;;;11.40;99.90;;;;;;5017790;28;20659;-69
2022/11/05 12:06:44;;;;;;;3.90;0.75;;;11.30;99.90;;;;;;5007234;28;20385;-70
2022/11/05 12:09:33;;;;;;;5.40;1.70;;;11.30;99.90;;;;;;5016385;28;20045;-70
2022/11/05 12:12:12;;;;;;;1.20;0.50;;;11.20;99.90;;;;;;5015313;28;20045;-69
2022/11/05 12:15:00;;;;;;;0.85;0.63;;;11.10;99.90;;;;;;5018550;28;20042;-70
2022/11/05 12:17:38;;;;;;;2.25;1.15;;;11.10;99.90;;;;;;5022703;28;20092;-69
2022/11/05 12:20:42;;;;;;;3.83;0.60;;;11.10;99.90;;;;;;5003161;28;20128;-70
2022/11/05 12:23:33;;;;;;;1.30;0.75;;;11.00;99.90;;;;;;5023674;28;20045;-69
2022/11/05 12:26:20;;;;;;;1.60;0.90;;;11.00;99.90;;;;;;5022695;28;20399;-69
2022/11/05 12:29:05;;;;;;;1.85;0.52;;;10.90;99.90;;;;;;5018868;28;20051;-69
2022/11/05 12:32:09;;;;;;;2.72;0.90;;;10.90;99.90;;;;;;5018185;28;20048;-70
2022/11/05 12:35:03;;;;;;;2.22;0.60;;;10.80;99.90;;;;;;5017555;28;20431;-70
2022/11/05 12:37:45;;;;;;;1.65;0.85;;;10.70;99.90;;;;;;5017063;28;20303;-70
2022/11/05 12:40:50;;;;;;;2.38;0.80;;;10.70;99.90;;;;;;5019871;28;20049;-69
2022/11/05 12:43:26;;;;;;;2.83;1.48;;;10.70;99.90;;;;;;5021196;28;20560;-70
2022/11/05 12:46:14;;;;;;;2.42;1.55;;;10.70;99.90;;;;;;5016155;28;20531;-70
2022/11/05 12:49:04;;;;;;;3.45;1.45;;;10.70;99.90;;;;;;5016576;28;20045;-70
2022/11/05 12:51:44;;;;;;;5.60;1.27;;;10.80;99.90;;;;;;5007752;28;20049;-70
2022/11/05 12:54:12;;;;;;;4.25;0.90;;;10.80;99.90;;;;;;5026601;28;20447;-70
2022/11/05 12:56:43;;;;;;;2.10;1.05;;;10.80;99.90;;;;;;5020838;28;20073;-70
2022/11/05 12:59:27;;;;;;;2.20;1.10;;;10.90;99.90;;;;;;5031047;28;20045;-70
2022/11/05 13:02:03;;;;;;;3.25;1.50;;;11.00;99.90;;;;;;5024739;28;20135;-69
2022/11/05 13:04:42;;;;;;;2.65;1.30;;;11.00;99.90;;;;;;5024627;28;20543;-69
2022/11/05 13:07:14;;;;;;;3.70;1.20;;;11.10;99.90;;;;;;5022909;28;20037;-69
2022/11/05 13:09:51;;;;;;;5.07;1.15;;;11.10;99.90;;;;;;5020831;28;20046;-70
2022/11/05 13:12:20;;;;;;;3.22;0.88;;;11.20;99.90;;;;;;4997935;28;20062;-70
2022/11/05 13:15:18;;;;;;;5.03;1.90;;;11.30;99.90;;;;;;4996931;28;20049;-70
2022/11/05 13:17:56;;;;;;;5.18;1.92;;;11.40;99.90;;;;;;4997675;28;20057;-70
2022/11/05 13:20:27;;;;;;;6.93;1.92;;;11.40;99.90;;;;;;5000181;28;20041;-69
2022/11/05 13:22:59;;;;;;;5.03;2.08;;;11.40;99.90;;;;;;5002418;28;20045;-69
2022/11/05 13:25:31;;;;;;;7.13;1.80;;;11.40;99.90;;;;;;5002604;28;21205;-70
2022/11/05 13:28:20;;;;;;;3.83;1.67;;;11.40;99.90;;;;;;4987325;28;20056;-70
2022/11/05 13:30:50;;;;;;;9.68;1.77;;;11.40;99.90;;;;;;4997756;28;20038;-70
2022/11/05 13:33:37;;;;;;;8.55;1.92;;;11.40;99.90;;;;;;5000156;28;20049;-69
2022/11/05 13:39:22;;;;;;;4.30;1.63;;;11.60;99.90;;;;;;4998126;28;20041;-71
2022/11/05 13:42:03;;;;;;;6.78;1.65;;;11.60;99.90;;;;;;5002975;28;20113;-71
2022/11/05 13:45:03;;;;;;;6.95;1.83;;;11.60;99.90;;;;;;5000775;28;20568;-69
2022/11/05 13:47:29;;;;;;;7.30;1.80;;;11.60;99.90;;;;;;4966194;28;20076;-70
2022/11/05 13:50:37;;;;;;;6.93;1.98;;;11.60;99.90;;;;;;4997783;28;21116;-69
2022/11/05 13:53:12;;;;;;;5.50;1.80;;;11.60;99.90;;;;;;5004692;28;20352;-69
2022/11/05 13:56:12;;;;;;;3.25;1.63;;;11.60;99.90;;;;;;5004405;28;20399;-69
2022/11/05 13:58:37;;;;;;;11.68;3.35;;;11.60;99.90;;;;;;5000447;28;20761;-70
2022/11/05 14:01:19;;;;;;;5.40;2.20;;;11.50;99.90;;;;;;4995139;28;20037;-70
2022/11/05 14:03:53;;;;;;;4.15;1.88;;;11.50;99.90;;;;;;4998785;28;20295;-70
2022/11/05 14:06:30;;;;;;;5.82;1.77;;;11.50;99.90;;;;;;5001066;28;20085;-70
2022/11/05 14:08:59;;;;;;;;;;;11.50;99.90;;;;;;4988623;28;20041;-76
2022/11/05 14:11:32;;;;;;;8.57;4.25;;;11.50;99.90;;;;;;5008215;28;19925;-70
2022/11/05 14:14:01;;;;;;;11.20;5.20;;;11.40;99.90;;;;;;5000772;28;20046;-69
2022/11/05 14:16:59;;;;;;;10.25;5.60;;;11.40;99.90;;;;;;5003642;28;20050;-69
2022/11/05 14:19:33;;;;;;;5.57;2.00;;;11.40;99.90;;;;;;4983886;28;20061;-69
2022/11/05 14:22:19;;;;;;;3.40;2.20;;;11.30;99.90;;;;;;4989727;28;20049;-71
2022/11/05 14:24:46;;;;;;;6.38;1.92;;;11.30;99.90;;;;;;5004655;28;20132;-71
2022/11/05 14:27:32;;;;;;;5.43;1.55;;;11.30;99.90;;;;;;5004081;28;20513;-71
2022/11/05 14:29:57;;;;;;;7.95;2.08;;;11.20;99.90;;;;;;4996345;28;20054;-71
2022/11/05 14:32:26;;;;;;;4.18;2.00;;;11.20;99.90;;;;;;5000167;28;20068;-70
2022/11/05 14:35:03;;;;;;;5.07;2.03;;;11.20;99.90;;;;;;5003411;28;20415;-70
2022/11/05 14:37:52;;;;;;;5.28;1.70;;;11.20;99.90;;;;;;5001478;28;20080;-71
2022/11/05 14:40:21;;;;;;;4.35;2.10;;;11.20;99.90;;;;;;5003411;28;20045;-71
2022/11/05 14:43:13;;;;;;;5.68;2.00;;;11.20;99.90;;;;;;5003595;28;20048;-71
2022/11/05 14:46:02;;;;;;;5.10;2.38;;;11.20;99.90;;;;;;4980476;28;20041;-71
2022/11/05 14:48:46;;;;;;;5.88;2.33;;;11.20;99.90;;;;;;5023831;28;20418;-71
2022/11/05 14:51:35;;;;;;;4.20;1.73;;;11.20;99.90;;;;;;5024043;28;20049;-71